sensor_id;sensor_type;location;lat;lon;timestamp;temperature;humidity
34740;DHT22;20967;48.442;9.994;2023-05-14T00:01:01;14.00;99.90
34740;DHT22;20967;48.442;9.994;2023-05-14T00:03:31;13.90;99.90
34740;DHT22;20967;48.442;9.994;2023-05-14T00:05:58;13.80;99.90
34740;DHT22;20967;48.442;9.994;2023-05-14T00:08:26;13.70;99.90
34740;DHT22;20967;48.442;9.994;2023-05-14T00:10:54;13.70;99.90
34740;DHT22;20967;48.442;9.994;2023-05-14T00:13:24;13.70;99.90
34740;DHT22;20967;48.442;9.994;2023-05-14T00:15:58;13.60;99.90
34740;DHT22;20967;48.442;9.994;2023-05-14T00:18:28;13.70;99.90
34740;DHT22;20967;48.442;9.994;2023-05-14T00:20:55;13.70;99.90
34740;DHT22;20967;48.442;9.994;2023-05-14T00:23:23;13.70;99.90
34740;DHT22;20967;48.442;9.994;2023-05-14T00:25:51;13.80;99.90
34740;DHT22;20967;48.442;9.994;2023-05-14T00:28:19;13.70;99.90
34740;DHT22;20967;48.442;9.994;2023-05-14T00:30:47;13.80;99.90
34740;DHT22;20967;48.442;9.994;2023-05-14T00:33:14;13.80;99.90
34740;DHT22;20967;48.442;9.994;2023-05-14T00:35:44;13.70;99.90
34740;DHT22;20967;48.442;9.994;2023-05-14T00:38:14;13.80;99.90
34740;DHT22;20967;48.442;9.994;2023-05-14T00:40:47;13.80;99.90
34740;DHT22;20967;48.442;9.994;2023-05-14T00:43:22;13.80;99.90
34740;DHT22;20967;48.442;9.994;2023-05-14T00:45:52;13.80;99.90
34740;DHT22;20967;48.442;9.994;2023-05-14T00:48:21;13.80;99.90
34740;DHT22;20967;48.442;9.994;2023-05-14T00:50:50;13.90;99.90
34740;DHT22;20967;48.442;9.994;2023-05-14T00:53:18;13.90;99.90
34740;DHT22;20967;48.442;9.994;2023-05-14T00:55:48;13.90;99.90
34740;DHT22;20967;48.442;9.994;2023-05-14T00:58:21;13.90;99.90
34740;DHT22;20967;48.442;9.994;2023-05-14T01:00:48;13.90;99.90
34740;DHT22;20967;48.442;9.994;2023-05-14T01:03:18;14.00;99.90
34740;DHT22;20967;48.442;9.994;2023-05-14T01:06:14;14.00;99.90
34740;DHT22;20967;48.442;9.994;2023-05-14T01:08:59;13.90;99.90
34740;DHT22;20967;48.442;9.994;2023-05-14T01:11:38;14.00;99.90
34740;DHT22;20967;48.442;9.994;2023-05-14T01:14:33;14.00;99.90
34740;DHT22;20967;48.442;9.994;2023-05-14T01:16:55;14.00;99.90
34740;DHT22;20967;48.442;9.994;2023-05-14T01:19:28;14.00;99.90
34740;DHT22;20967;48.442;9.994;2023-05-14T01:21:56;14.00;99.90
34740;DHT22;20967;48.442;9.994;2023-05-14T01:24:26;14.00;99.90
34740;DHT22;20967;48.442;9.994;2023-05-14T01:26:57;14.10;99.90
34740;DHT22;20967;48.442;9.994;2023-05-14T01:29:26;14.10;99.90
34740;DHT22;20967;48.442;9.994;2023-05-14T01:31:56;14.10;99.90
34740;DHT22;20967;48.442;9.994;2023-05-14T01:34:27;14.00;99.90
34740;DHT22;20967;48.442;9.994;2023-05-14T01:36:57;14.00;99.90
34740;DHT22;20967;48.442;9.994;2023-05-14T01:39:26;14.10;99.90
34740;DHT22;20967;48.442;9.994;2023-05-14T01:41:56;14.10;99.90
34740;DHT22;20967;48.442;9.994;2023-05-14T01:44:24;14.10;99.90
34740;DHT22;20967;48.442;9.994;2023-05-14T01:46:52;14.10;99.90
34740;DHT22;20967;48.442;9.994;2023-05-14T01:49:20;14.10;99.90
34740;DHT22;20967;48.442;9.994;2023-05-14T01:51:49;14.10;99.90
34740;DHT22;20967;48.442;9.994;2023-05-14T01:54:16;14.10;99.90
34740;DHT22;20967;48.442;9.994;2023-05-14T01:56:44;14.10;99.90
34740;DHT22;20967;48.442;9.994;2023-05-14T01:59:13;14.10;99.90
34740;DHT22;20967;48.442;9.994;2023-05-14T02:01:44;14.10;99.90
34740;DHT22;20967;48.442;9.994;2023-05-14T02:04:12;14.10;99.90
34740;DHT22;20967;48.442;9.994;2023-05-14T02:06:41;14.10;99.90
34740;DHT22;20967;48.442;9.994;2023-05-14T02:09:11;14.10;99.90
34740;DHT22;20967;48.442;9.994;2023-05-14T02:11:39;14.10;99.90
34740;DHT22;20967;48.442;9.994;2023-05-14T02:14:06;14.10;99.90
34740;DHT22;20967;48.442;9.994;2023-05-14T02:16:36;14.10;99.90
34740;DHT22;20967;48.442;9.994;2023-05-14T02:19:04;14.10;99.90
34740;DHT22;20967;48.442;9.994;2023-05-14T02:21:33;14.10;99.90
34740;DHT22;20967;48.442;9.994;2023-05-14T02:24:01;14.10;99.90
34740;DHT22;20967;48.442;9.994;2023-05-14T02:26:29;14.10;99.90
34740;DHT22;20967;48.442;9.994;2023-05-14T02:28:57;14.10;99.90
34740;DHT22;20967;48.442;9.994;2023-05-14T02:31:25;14.10;99.90
34740;DHT22;20967;48.442;9.994;2023-05-14T02:33:52;14.10;99.90
34740;DHT22;20967;48.442;9.994;2023-05-14T02:36:20;14.10;99.90
34740;DHT22;20967;48.442;9.994;2023-05-14T02:38:48;14.10;99.90
34740;DHT22;20967;48.442;9.994;2023-05-14T02:41:16;14.00;99.90
34740;DHT22;20967;48.442;9.994;2023-05-14T02:43:44;14.00;99.90
34740;DHT22;20967;48.442;9.994;2023-05-14T02:46:13;14.00;99.90
34740;DHT22;20967;48.442;9.994;2023-05-14T02:48:41;14.00;99.90
34740;DHT22;20967;48.442;9.994;2023-05-14T02:51:09;14.00;99.90
34740;DHT22;20967;48.442;9.994;2023-05-14T02:53:37;14.00;99.90
34740;DHT22;20967;48.442;9.994;2023-05-14T02:56:05;14.00;99.90
34740;DHT22;20967;48.442;9.994;2023-05-14T02:58:33;14.00;99.90
34740;DHT22;20967;48.442;9.994;2023-05-14T03:01:01;14.00;99.90
34740;DHT22;20967;48.442;9.994;2023-05-14T03:03:35;14.10;99.90
34740;DHT22;20967;48.442;9.994;2023-05-14T03:05:59;14.00;99.90
34740;DHT22;20967;48.442;9.994;2023-05-14T03:08:27;14.00;99.90
34740;DHT22;20967;48.442;9.994;2023-05-14T03:10:55;14.00;99.90
34740;DHT22;20967;48.442;9.994;2023-05-14T03:13:22;14.00;99.90
34740;DHT22;20967;48.442;9.994;2023-05-14T03:15:51;14.00;99.90
34740;DHT22;20967;48.442;9.994;2023-05-14T03:18:22;14.00;99.90
34740;DHT22;20967;48.442;9.994;2023-05-14T03:20:51;14.00;99.90
34740;DHT22;20967;48.442;9.994;2023-05-14T03:23:20;14.00;99.90
34740;DHT22;20967;48.442;9.994;2023-05-14T03:25:48;14.00;99.90
34740;DHT22;20967;48.442;9.994;2023-05-14T03:28:16;14.00;99.90
34740;DHT22;20967;48.442;9.994;2023-05-14T03:30:44;14.00;99.90
34740;DHT22;20967;48.442;9.994;2023-05-14T03:33:12;14.00;99.90
34740;DHT22;20967;48.442;9.994;2023-05-14T03:35:40;13.90;99.90
34740;DHT22;20967;48.442;9.994;2023-05-14T03:38:09;14.00;99.90
34740;DHT22;20967;48.442;9.994;2023-05-14T03:40:37;14.00;99.90
34740;DHT22;20967;48.442;9.994;2023-05-14T03:43:05;14.00;99.90
34740;DHT22;20967;48.442;9.994;2023-05-14T03:45:33;13.90;99.90
34740;DHT22;20967;48.442;9.994;2023-05-14T03:48:04;13.90;99.90
34740;DHT22;20967;48.442;9.994;2023-05-14T03:50:32;14.00;99.90
34740;DHT22;20967;48.442;9.994;2023-05-14T03:53:01;13.90;99.90
34740;DHT22;20967;48.442;9.994;2023-05-14T03:55:31;13.90;99.90
34740;DHT22;20967;48.442;9.994;2023-05-14T03:57:59;13.90;99.90
34740;DHT22;20967;48.442;9.994;2023-05-14T04:00:29;13.90;99.90
34740;DHT22;20967;48.442;9.994;2023-05-14T04:02:56;13.90;99.90
34740;DHT22;20967;48.442;9.994;2023-05-14T04:05:24;14.00;99.90
34740;DHT22;20967;48.442;9.994;2023-05-14T04:07:52;13.90;99.90
34740;DHT22;20967;48.442;9.994;2023-05-14T04:10:21;13.90;99.90
34740;DHT22;20967;48.442;9.994;2023-05-14T04:12:49;13.90;99.90
34740;DHT22;20967;48.442;9.994;2023-05-14T04:15:17;13.90;99.90
34740;DHT22;20967;48.442;9.994;2023-05-14T04:17:46;13.90;99.90
34740;DHT22;20967;48.442;9.994;2023-05-14T04:20:14;13.90;99.90
34740;DHT22;20967;48.442;9.994;2023-05-14T04:22:42;13.90;99.90
34740;DHT22;20967;48.442;9.994;2023-05-14T04:25:10;13.90;99.90
34740;DHT22;20967;48.442;9.994;2023-05-14T04:27:43;14.00;99.90
34740;DHT22;20967;48.442;9.994;2023-05-14T04:30:11;14.00;99.90
34740;DHT22;20967;48.442;9.994;2023-05-14T04:32:39;13.90;99.90
34740;DHT22;20967;48.442;9.994;2023-05-14T04:35:07;14.00;99.90
34740;DHT22;20967;48.442;9.994;2023-05-14T04:37:36;13.90;99.90
34740;DHT22;20967;48.442;9.994;2023-05-14T04:40:08;14.00;99.90
34740;DHT22;20967;48.442;9.994;2023-05-14T04:42:38;14.00;99.90
34740;DHT22;20967;48.442;9.994;2023-05-14T04:45:06;14.00;99.90
34740;DHT22;20967;48.442;9.994;2023-05-14T04:47:34;14.00;99.90
34740;DHT22;20967;48.442;9.994;2023-05-14T04:50:05;14.00;99.90
34740;DHT22;20967;48.442;9.994;2023-05-14T04:52:32;14.00;99.90
34740;DHT22;20967;48.442;9.994;2023-05-14T04:55:00;14.00;99.90
34740;DHT22;20967;48.442;9.994;2023-05-14T04:57:28;14.00;99.90
34740;DHT22;20967;48.442;9.994;2023-05-14T04:59:57;14.10;99.90
34740;DHT22;20967;48.442;9.994;2023-05-14T05:02:27;14.10;99.90
34740;DHT22;20967;48.442;9.994;2023-05-14T05:04:54;14.20;99.90
34740;DHT22;20967;48.442;9.994;2023-05-14T05:07:22;14.20;99.90
34740;DHT22;20967;48.442;9.994;2023-05-14T05:09:50;14.20;99.90
34740;DHT22;20967;48.442;9.994;2023-05-14T05:12:18;14.30;99.90
34740;DHT22;20967;48.442;9.994;2023-05-14T05:14:45;14.20;99.90
34740;DHT22;20967;48.442;9.994;2023-05-14T05:17:14;14.20;99.90
34740;DHT22;20967;48.442;9.994;2023-05-14T05:19:42;14.40;99.90
34740;DHT22;20967;48.442;9.994;2023-05-14T05:22:09;14.30;99.90
34740;DHT22;20967;48.442;9.994;2023-05-14T05:24:37;14.40;99.90
34740;DHT22;20967;48.442;9.994;2023-05-14T05:27:08;14.40;99.90
34740;DHT22;20967;48.442;9.994;2023-05-14T05:29:35;14.50;99.90
34740;DHT22;20967;48.442;9.994;2023-05-14T05:32:03;14.60;99.90
34740;DHT22;20967;48.442;9.994;2023-05-14T05:34:32;14.50;99.90
34740;DHT22;20967;48.442;9.994;2023-05-14T05:37:03;14.50;99.90
34740;DHT22;20967;48.442;9.994;2023-05-14T05:39:33;14.60;99.90
34740;DHT22;20967;48.442;9.994;2023-05-14T05:42:03;14.70;99.90
34740;DHT22;20967;48.442;9.994;2023-05-14T05:44:31;14.70;99.90
34740;DHT22;20967;48.442;9.994;2023-05-14T05:46:59;14.70;99.90
34740;DHT22;20967;48.442;9.994;2023-05-14T05:49:27;14.70;99.90
34740;DHT22;20967;48.442;9.994;2023-05-14T05:51:55;14.80;99.90
34740;DHT22;20967;48.442;9.994;2023-05-14T05:54:25;14.80;99.90
34740;DHT22;20967;48.442;9.994;2023-05-14T05:56:52;14.80;99.90
34740;DHT22;20967;48.442;9.994;2023-05-14T05:59:20;14.90;99.90
34740;DHT22;20967;48.442;9.994;2023-05-14T06:01:50;14.90;99.90
34740;DHT22;20967;48.442;9.994;2023-05-14T06:04:17;14.90;99.90
34740;DHT22;20967;48.442;9.994;2023-05-14T06:06:46;14.90;99.90
34740;DHT22;20967;48.442;9.994;2023-05-14T06:09:13;15.00;99.90
34740;DHT22;20967;48.442;9.994;2023-05-14T06:11:41;14.80;99.90
34740;DHT22;20967;48.442;9.994;2023-05-14T06:14:10;14.80;99.90
34740;DHT22;20967;48.442;9.994;2023-05-14T06:16:38;14.70;99.90
34740;DHT22;20967;48.442;9.994;2023-05-14T06:19:09;14.70;99.90
34740;DHT22;20967;48.442;9.994;2023-05-14T06:21:36;14.70;99.90
34740;DHT22;20967;48.442;9.994;2023-05-14T06:24:04;14.70;99.90
34740;DHT22;20967;48.442;9.994;2023-05-14T06:26:32;14.60;99.90
34740;DHT22;20967;48.442;9.994;2023-05-14T06:29:00;14.80;99.90
34740;DHT22;20967;48.442;9.994;2023-05-14T06:31:28;14.80;99.90
34740;DHT22;20967;48.442;9.994;2023-05-14T06:33:55;14.80;99.90
34740;DHT22;20967;48.442;9.994;2023-05-14T06:36:23;14.90;99.90
34740;DHT22;20967;48.442;9.994;2023-05-14T06:38:51;15.00;99.90
34740;DHT22;20967;48.442;9.994;2023-05-14T06:41:22;14.90;99.90
34740;DHT22;20967;48.442;9.994;2023-05-14T06:43:54;15.00;99.90
34740;DHT22;20967;48.442;9.994;2023-05-14T06:46:18;15.00;99.90
34740;DHT22;20967;48.442;9.994;2023-05-14T06:48:47;15.10;99.90
34740;DHT22;20967;48.442;9.994;2023-05-14T06:51:16;15.30;99.90
34740;DHT22;20967;48.442;9.994;2023-05-14T06:53:44;15.20;99.90
34740;DHT22;20967;48.442;9.994;2023-05-14T06:56:13;15.20;99.90
34740;DHT22;20967;48.442;9.994;2023-05-14T06:58:41;15.40;99.90
34740;DHT22;20967;48.442;9.994;2023-05-14T07:01:09;15.40;99.90
34740;DHT22;20967;48.442;9.994;2023-05-14T07:03:37;15.50;99.90
34740;DHT22;20967;48.442;9.994;2023-05-14T07:06:05;15.70;99.90
34740;DHT22;20967;48.442;9.994;2023-05-14T07:08:32;15.60;99.90
34740;DHT22;20967;48.442;9.994;2023-05-14T07:11:00;15.60;99.90
34740;DHT22;20967;48.442;9.994;2023-05-14T07:13:28;15.70;99.90
34740;DHT22;20967;48.442;9.994;2023-05-14T07:15:56;15.70;99.90
34740;DHT22;20967;48.442;9.994;2023-05-14T07:18:24;15.80;99.90
34740;DHT22;20967;48.442;9.994;2023-05-14T07:20:51;15.90;99.90
34740;DHT22;20967;48.442;9.994;2023-05-14T07:23:19;15.80;99.90
34740;DHT22;20967;48.442;9.994;2023-05-14T07:25:47;15.80;99.90
34740;DHT22;20967;48.442;9.994;2023-05-14T07:28:15;15.80;99.90
34740;DHT22;20967;48.442;9.994;2023-05-14T07:30:42;15.80;99.90
34740;DHT22;20967;48.442;9.994;2023-05-14T07:33:10;15.80;99.90
34740;DHT22;20967;48.442;9.994;2023-05-14T07:35:43;16.00;99.90
34740;DHT22;20967;48.442;9.994;2023-05-14T07:38:10;15.70;99.90
34740;DHT22;20967;48.442;9.994;2023-05-14T07:40:38;15.70;99.90
34740;DHT22;20967;48.442;9.994;2023-05-14T07:43:06;15.80;99.90
34740;DHT22;20967;48.442;9.994;2023-05-14T07:45:36;15.70;99.90
34740;DHT22;20967;48.442;9.994;2023-05-14T07:48:04;15.80;99.90
34740;DHT22;20967;48.442;9.994;2023-05-14T07:50:32;15.70;99.90
34740;DHT22;20967;48.442;9.994;2023-05-14T07:53:00;15.50;99.90
34740;DHT22;20967;48.442;9.994;2023-05-14T07:55:28;15.50;99.90
34740;DHT22;20967;48.442;9.994;2023-05-14T07:57:55;15.40;99.90
34740;DHT22;20967;48.442;9.994;2023-05-14T08:00:23;15.40;99.90
34740;DHT22;20967;48.442;9.994;2023-05-14T08:02:51;15.40;99.90
34740;DHT22;20967;48.442;9.994;2023-05-14T08:05:19;15.40;99.90
34740;DHT22;20967;48.442;9.994;2023-05-14T08:07:47;15.50;99.90
34740;DHT22;20967;48.442;9.994;2023-05-14T08:10:15;15.40;99.90
34740;DHT22;20967;48.442;9.994;2023-05-14T08:12:43;15.50;99.90
34740;DHT22;20967;48.442;9.994;2023-05-14T08:15:10;15.60;99.90
34740;DHT22;20967;48.442;9.994;2023-05-14T08:17:38;15.60;99.90
34740;DHT22;20967;48.442;9.994;2023-05-14T08:20:07;15.60;99.90
34740;DHT22;20967;48.442;9.994;2023-05-14T08:22:35;15.70;99.90
34740;DHT22;20967;48.442;9.994;2023-05-14T08:25:03;15.90;99.90
34740;DHT22;20967;48.442;9.994;2023-05-14T08:27:32;15.90;99.90
34740;DHT22;20967;48.442;9.994;2023-05-14T08:29:59;15.80;99.90
34740;DHT22;20967;48.442;9.994;2023-05-14T08:32:28;15.70;99.90
34740;DHT22;20967;48.442;9.994;2023-05-14T08:34:55;16.00;99.90
34740;DHT22;20967;48.442;9.994;2023-05-14T08:37:23;15.90;99.90
34740;DHT22;20967;48.442;9.994;2023-05-14T08:39:51;16.40;99.90
34740;DHT22;20967;48.442;9.994;2023-05-14T08:42:20;16.60;99.90
34740;DHT22;20967;48.442;9.994;2023-05-14T08:44:59;16.50;99.90
34740;DHT22;20967;48.442;9.994;2023-05-14T08:47:25;16.60;99.90
34740;DHT22;20967;48.442;9.994;2023-05-14T08:50:04;16.70;99.90
34740;DHT22;20967;48.442;9.994;2023-05-14T08:52:33;16.70;99.90
34740;DHT22;20967;48.442;9.994;2023-05-14T08:55:03;16.70;99.90
34740;DHT22;20967;48.442;9.994;2023-05-14T08:57:32;16.70;99.90
34740;DHT22;20967;48.442;9.994;2023-05-14T09:00:02;16.70;99.90
34740;DHT22;20967;48.442;9.994;2023-05-14T09:02:40;16.50;99.90
34740;DHT22;20967;48.442;9.994;2023-05-14T09:05:09;16.30;99.90
34740;DHT22;20967;48.442;9.994;2023-05-14T09:07:37;16.20;99.90
34740;DHT22;20967;48.442;9.994;2023-05-14T09:10:05;16.40;99.90
34740;DHT22;20967;48.442;9.994;2023-05-14T09:12:34;16.40;99.90
34740;DHT22;20967;48.442;9.994;2023-05-14T09:15:02;16.30;99.90
34740;DHT22;20967;48.442;9.994;2023-05-14T09:17:31;16.60;99.90
34740;DHT22;20967;48.442;9.994;2023-05-14T09:20:00;16.60;99.90
34740;DHT22;20967;48.442;9.994;2023-05-14T09:22:28;16.50;99.90
34740;DHT22;20967;48.442;9.994;2023-05-14T09:25:06;16.80;99.90
34740;DHT22;20967;48.442;9.994;2023-05-14T09:27:32;17.00;99.90
34740;DHT22;20967;48.442;9.994;2023-05-14T09:30:12;17.10;99.90
34740;DHT22;20967;48.442;9.994;2023-05-14T09:32:40;17.20;99.90
34740;DHT22;20967;48.442;9.994;2023-05-14T09:35:12;17.70;99.90
34740;DHT22;20967;48.442;9.994;2023-05-14T09:37:44;17.60;99.90
34740;DHT22;20967;48.442;9.994;2023-05-14T09:40:12;17.50;99.90
34740;DHT22;20967;48.442;9.994;2023-05-14T09:42:41;17.50;99.90
34740;DHT22;20967;48.442;9.994;2023-05-14T09:45:09;17.50;99.90
34740;DHT22;20967;48.442;9.994;2023-05-14T09:47:38;17.30;99.90
34740;DHT22;20967;48.442;9.994;2023-05-14T09:50:06;17.60;99.90
34740;DHT22;20967;48.442;9.994;2023-05-14T09:52:34;17.60;99.90
34740;DHT22;20967;48.442;9.994;2023-05-14T09:55:02;18.10;99.90
34740;DHT22;20967;48.442;9.994;2023-05-14T09:57:30;18.10;99.90
34740;DHT22;20967;48.442;9.994;2023-05-14T09:59:57;18.10;99.90
34740;DHT22;20967;48.442;9.994;2023-05-14T10:02:34;18.10;99.90
34740;DHT22;20967;48.442;9.994;2023-05-14T10:04:59;18.00;99.90
34740;DHT22;20967;48.442;9.994;2023-05-14T10:07:30;18.00;99.90
34740;DHT22;20967;48.442;9.994;2023-05-14T10:10:01;17.60;99.90
34740;DHT22;20967;48.442;9.994;2023-05-14T10:12:36;17.30;99.90
34740;DHT22;20967;48.442;9.994;2023-05-14T10:15:11;17.60;99.90
34740;DHT22;20967;48.442;9.994;2023-05-14T10:17:34;17.60;99.90
34740;DHT22;20967;48.442;9.994;2023-05-14T10:20:03;17.70;99.90
34740;DHT22;20967;48.442;9.994;2023-05-14T10:22:33;18.10;99.90
34740;DHT22;20967;48.442;9.994;2023-05-14T10:25:02;17.80;99.90
34740;DHT22;20967;48.442;9.994;2023-05-14T10:27:30;17.90;99.90
34740;DHT22;20967;48.442;9.994;2023-05-14T10:29:58;18.00;99.90
34740;DHT22;20967;48.442;9.994;2023-05-14T10:32:26;18.20;99.90
34740;DHT22;20967;48.442;9.994;2023-05-14T10:34:56;18.50;99.90
34740;DHT22;20967;48.442;9.994;2023-05-14T10:37:25;18.30;99.90
34740;DHT22;20967;48.442;9.994;2023-05-14T10:40:01;18.50;99.90
34740;DHT22;20967;48.442;9.994;2023-05-14T10:42:33;18.80;99.90
34740;DHT22;20967;48.442;9.994;2023-05-14T10:45:05;18.90;99.90
34740;DHT22;20967;48.442;9.994;2023-05-14T10:47:35;19.20;99.90
34740;DHT22;20967;48.442;9.994;2023-05-14T10:50:06;19.20;99.90
34740;DHT22;20967;48.442;9.994;2023-05-14T10:52:34;19.10;99.90
34740;DHT22;20967;48.442;9.994;2023-05-14T10:55:04;19.20;99.90
34740;DHT22;20967;48.442;9.994;2023-05-14T10:57:37;19.40;99.90
34740;DHT22;20967;48.442;9.994;2023-05-14T11:00:06;19.40;99.90
34740;DHT22;20967;48.442;9.994;2023-05-14T11:02:36;19.20;99.90
34740;DHT22;20967;48.442;9.994;2023-05-14T11:05:06;19.00;99.90
34740;DHT22;20967;48.442;9.994;2023-05-14T11:07:38;19.10;99.90
34740;DHT22;20967;48.442;9.994;2023-05-14T11:10:17;19.00;99.90
34740;DHT22;20967;48.442;9.994;2023-05-14T11:12:45;18.80;99.90
34740;DHT22;20967;48.442;9.994;2023-05-14T11:15:20;18.90;99.90
34740;DHT22;20967;48.442;9.994;2023-05-14T11:17:46;19.10;99.90
34740;DHT22;20967;48.442;9.994;2023-05-14T11:20:14;19.30;99.90
34740;DHT22;20967;48.442;9.994;2023-05-14T11:22:45;19.60;99.90
34740;DHT22;20967;48.442;9.994;2023-05-14T11:25:14;19.90;99.90
34740;DHT22;20967;48.442;9.994;2023-05-14T11:27:44;20.20;99.90
34740;DHT22;20967;48.442;9.994;2023-05-14T11:30:17;19.70;99.90
34740;DHT22;20967;48.442;9.994;2023-05-14T11:32:49;20.00;99.90
34740;DHT22;20967;48.442;9.994;2023-05-14T11:35:17;19.80;99.90
34740;DHT22;20967;48.442;9.994;2023-05-14T11:37:50;20.10;99.90
34740;DHT22;20967;48.442;9.994;2023-05-14T11:40:22;19.70;99.90
34740;DHT22;20967;48.442;9.994;2023-05-14T11:42:52;19.50;99.90
34740;DHT22;20967;48.442;9.994;2023-05-14T11:45:25;19.40;99.90
34740;DHT22;20967;48.442;9.994;2023-05-14T11:47:54;19.40;99.90
34740;DHT22;20967;48.442;9.994;2023-05-14T11:50:22;19.40;99.90
34740;DHT22;20967;48.442;9.994;2023-05-14T11:52:54;19.40;99.90
34740;DHT22;20967;48.442;9.994;2023-05-14T11:55:23;19.80;99.90
34740;DHT22;20967;48.442;9.994;2023-05-14T11:57:53;20.40;99.90
34740;DHT22;20967;48.442;9.994;2023-05-14T12:00:23;20.20;99.90
34740;DHT22;20967;48.442;9.994;2023-05-14T12:02:54;19.60;99.90
34740;DHT22;20967;48.442;9.994;2023-05-14T12:05:25;19.80;99.90
34740;DHT22;20967;48.442;9.994;2023-05-14T12:07:54;19.90;99.90
34740;DHT22;20967;48.442;9.994;2023-05-14T12:10:22;19.90;99.90
34740;DHT22;20967;48.442;9.994;2023-05-14T12:12:50;19.20;99.90
34740;DHT22;20967;48.442;9.994;2023-05-14T12:15:20;19.10;99.90
34740;DHT22;20967;48.442;9.994;2023-05-14T12:17:49;19.10;99.90
34740;DHT22;20967;48.442;9.994;2023-05-14T12:20:21;18.70;99.90
34740;DHT22;20967;48.442;9.994;2023-05-14T12:22:51;18.60;99.90
34740;DHT22;20967;48.442;9.994;2023-05-14T12:25:23;18.80;99.90
34740;DHT22;20967;48.442;9.994;2023-05-14T12:27:52;18.90;99.90
34740;DHT22;20967;48.442;9.994;2023-05-14T12:30:22;18.80;99.90
34740;DHT22;20967;48.442;9.994;2023-05-14T12:32:51;19.00;99.90
34740;DHT22;20967;48.442;9.994;2023-05-14T12:35:20;18.80;99.90
34740;DHT22;20967;48.442;9.994;2023-05-14T12:37:51;18.80;99.90
34740;DHT22;20967;48.442;9.994;2023-05-14T12:40:21;19.20;99.90
34740;DHT22;20967;48.442;9.994;2023-05-14T12:42:50;19.00;99.90
34740;DHT22;20967;48.442;9.994;2023-05-14T12:45:20;19.10;99.90
34740;DHT22;20967;48.442;9.994;2023-05-14T12:47:50;19.30;99.90
34740;DHT22;20967;48.442;9.994;2023-05-14T12:50:24;19.20;99.90
34740;DHT22;20967;48.442;9.994;2023-05-14T12:52:55;19.30;99.90
34740;DHT22;20967;48.442;9.994;2023-05-14T12:55:24;19.50;99.90
34740;DHT22;20967;48.442;9.994;2023-05-14T12:57:53;20.10;99.90
34740;DHT22;20967;48.442;9.994;2023-05-14T13:00:21;20.00;99.90
34740;DHT22;20967;48.442;9.994;2023-05-14T13:02:53;20.00;99.90
34740;DHT22;20967;48.442;9.994;2023-05-14T13:05:25;20.00;99.90
34740;DHT22;20967;48.442;9.994;2023-05-14T13:07:57;20.10;99.90
34740;DHT22;20967;48.442;9.994;2023-05-14T13:10:27;20.20;99.90
34740;DHT22;20967;48.442;9.994;2023-05-14T13:12:58;20.30;99.90
34740;DHT22;20967;48.442;9.994;2023-05-14T13:15:31;20.50;99.90
34740;DHT22;20967;48.442;9.994;2023-05-14T13:18:00;20.00;99.90
34740;DHT22;20967;48.442;9.994;2023-05-14T13:20:29;19.80;99.90
34740;DHT22;20967;48.442;9.994;2023-05-14T13:23:01;19.60;99.90
34740;DHT22;20967;48.442;9.994;2023-05-14T13:25:31;19.30;99.90
34740;DHT22;20967;48.442;9.994;2023-05-14T13:28:00;19.00;99.90
34740;DHT22;20967;48.442;9.994;2023-05-14T13:30:32;18.70;99.90
34740;DHT22;20967;48.442;9.994;2023-05-14T13:33:04;18.40;99.90
34740;DHT22;20967;48.442;9.994;2023-05-14T13:35:32;18.00;99.90
34740;DHT22;20967;48.442;9.994;2023-05-14T13:38:00;18.20;99.90
34740;DHT22;20967;48.442;9.994;2023-05-14T13:40:31;18.00;99.90
34740;DHT22;20967;48.442;9.994;2023-05-14T13:42:59;17.80;99.90
34740;DHT22;20967;48.442;9.994;2023-05-14T13:45:31;17.90;99.90
34740;DHT22;20967;48.442;9.994;2023-05-14T13:48:00;17.80;99.90
34740;DHT22;20967;48.442;9.994;2023-05-14T13:50:31;17.90;99.90
34740;DHT22;20967;48.442;9.994;2023-05-14T13:53:02;17.60;99.90
34740;DHT22;20967;48.442;9.994;2023-05-14T13:55:34;17.60;99.90
34740;DHT22;20967;48.442;9.994;2023-05-14T13:58:04;17.50;99.90
34740;DHT22;20967;48.442;9.994;2023-05-14T14:00:39;16.00;99.90
34740;DHT22;20967;48.442;9.994;2023-05-14T14:03:08;15.10;99.90
34740;DHT22;20967;48.442;9.994;2023-05-14T14:05:39;15.00;99.90
34740;DHT22;20967;48.442;9.994;2023-05-14T14:08:07;15.00;99.90
34740;DHT22;20967;48.442;9.994;2023-05-14T14:10:37;14.90;99.90
34740;DHT22;20967;48.442;9.994;2023-05-14T14:13:06;13.30;99.90
34740;DHT22;20967;48.442;9.994;2023-05-14T14:15:36;14.30;99.90
34740;DHT22;20967;48.442;9.994;2023-05-14T14:18:06;14.00;99.90
34740;DHT22;20967;48.442;9.994;2023-05-14T14:20:39;14.00;99.90
34740;DHT22;20967;48.442;9.994;2023-05-14T14:23:09;14.20;99.90
34740;DHT22;20967;48.442;9.994;2023-05-14T14:25:40;14.30;99.90
34740;DHT22;20967;48.442;9.994;2023-05-14T14:28:08;14.40;99.90
34740;DHT22;20967;48.442;9.994;2023-05-14T14:30:37;14.50;99.90
34740;DHT22;20967;48.442;9.994;2023-05-14T14:33:09;14.50;99.90
34740;DHT22;20967;48.442;9.994;2023-05-14T14:35:38;14.40;99.90
34740;DHT22;20967;48.442;9.994;2023-05-14T14:38:06;14.20;99.90
34740;DHT22;20967;48.442;9.994;2023-05-14T14:40:34;13.80;99.90
34740;DHT22;20967;48.442;9.994;2023-05-14T14:43:02;13.50;99.90
34740;DHT22;20967;48.442;9.994;2023-05-14T14:45:29;13.40;99.90
34740;DHT22;20967;48.442;9.994;2023-05-14T14:48:22;13.40;99.90
34740;DHT22;20967;48.442;9.994;2023-05-14T14:50:51;13.30;99.90
34740;DHT22;20967;48.442;9.994;2023-05-14T14:53:21;13.40;99.90
34740;DHT22;20967;48.442;9.994;2023-05-14T14:55:49;13.40;99.90
34740;DHT22;20967;48.442;9.994;2023-05-14T14:58:18;13.70;99.90
34740;DHT22;20967;48.442;9.994;2023-05-14T15:00:47;13.80;99.90
34740;DHT22;20967;48.442;9.994;2023-05-14T15:03:16;13.80;99.90
34740;DHT22;20967;48.442;9.994;2023-05-14T15:05:43;13.80;99.90
34740;DHT22;20967;48.442;9.994;2023-05-14T15:08:12;14.00;99.90
34740;DHT22;20967;48.442;9.994;2023-05-14T15:10:39;14.00;99.90
34740;DHT22;20967;48.442;9.994;2023-05-14T15:13:08;14.20;99.90
34740;DHT22;20967;48.442;9.994;2023-05-14T15:15:36;14.30;99.90
34740;DHT22;20967;48.442;9.994;2023-05-14T15:18:04;14.20;99.90
34740;DHT22;20967;48.442;9.994;2023-05-14T15:20:32;13.90;99.90
34740;DHT22;20967;48.442;9.994;2023-05-14T15:23:00;13.80;99.90
34740;DHT22;20967;48.442;9.994;2023-05-14T15:25:28;13.80;99.90
34740;DHT22;20967;48.442;9.994;2023-05-14T15:27:55;14.10;99.90
34740;DHT22;20967;48.442;9.994;2023-05-14T15:30:23;14.50;99.90
34740;DHT22;20967;48.442;9.994;2023-05-14T15:32:51;14.70;99.90
34740;DHT22;20967;48.442;9.994;2023-05-14T15:35:19;15.20;99.90
34740;DHT22;20967;48.442;9.994;2023-05-14T15:37:47;15.80;99.90
34740;DHT22;20967;48.442;9.994;2023-05-14T15:40:15;16.20;99.90
34740;DHT22;20967;48.442;9.994;2023-05-14T15:42:42;16.50;99.90